sensor_id;sensor_type;location;lat;lon;timestamp;P1;durP1;ratioP1;P2;durP2;ratioP2
23617;SDS011;18207;32.078;34.818;2023-04-09T00:00:37;2.72;;;2.05;;
23617;SDS011;18207;32.078;34.818;2023-04-09T00:03:10;2.78;;;1.85;;
23617;SDS011;18207;32.078;34.818;2023-04-09T00:05:40;2.03;;;1.80;;
23617;SDS011;18207;32.078;34.818;2023-04-09T00:08:11;3.25;;;1.98;;
23617;SDS011;18207;32.078;34.818;2023-04-09T00:10:42;2.80;;;1.80;;
23617;SDS011;18207;32.078;34.818;2023-04-09T00:13:13;4.32;;;1.73;;
23617;SDS011;18207;32.078;34.818;2023-04-09T00:15:57;2.83;;;2.00;;
23617;SDS011;18207;32.078;34.818;2023-04-09T00:18:29;2.83;;;1.90;;
23617;SDS011;18207;32.078;34.818;2023-04-09T00:20:59;2.42;;;1.80;;
23617;SDS011;18207;32.078;34.818;2023-04-09T00:23:29;2.25;;;1.67;;
23617;SDS011;18207;32.078;34.818;2023-04-09T00:26:00;2.17;;;1.63;;
23617;SDS011;18207;32.078;34.818;2023-04-09T00:28:30;2.17;;;1.50;;
23617;SDS011;18207;32.078;34.818;2023-04-09T00:31:00;2.60;;;1.63;;
23617;SDS011;18207;32.078;34.818;2023-04-09T00:33:32;2.53;;;1.40;;
23617;SDS011;18207;32.078;34.818;2023-04-09T00:36:03;2.08;;;1.60;;
23617;SDS011;18207;32.078;34.818;2023-04-09T00:38:33;2.72;;;1.65;;
23617;SDS011;18207;32.078;34.818;2023-04-09T00:41:03;2.45;;;1.65;;
23617;SDS011;18207;32.078;34.818;2023-04-09T00:43:34;3.28;;;1.52;;
23617;SDS011;18207;32.078;34.818;2023-04-09T00:46:04;3.53;;;1.77;;
23617;SDS011;18207;32.078;34.818;2023-04-09T00:48:36;1.63;;;1.33;;
23617;SDS011;18207;32.078;34.818;2023-04-09T00:51:07;1.63;;;1.38;;
23617;SDS011;18207;32.078;34.818;2023-04-09T00:53:37;1.83;;;1.40;;
23617;SDS011;18207;32.078;34.818;2023-04-09T00:56:10;1.50;;;1.40;;
23617;SDS011;18207;32.078;34.818;2023-04-09T00:58:42;2.15;;;1.35;;
23617;SDS011;18207;32.078;34.818;2023-04-09T01:01:13;1.27;;;1.17;;
23617;SDS011;18207;32.078;34.818;2023-04-09T01:03:46;1.60;;;1.50;;
23617;SDS011;18207;32.078;34.818;2023-04-09T01:06:19;2.35;;;1.38;;
23617;SDS011;18207;32.078;34.818;2023-04-09T01:08:57;1.73;;;1.38;;
23617;SDS011;18207;32.078;34.818;2023-04-09T01:11:35;2.03;;;1.45;;
23617;SDS011;18207;32.078;34.818;2023-04-09T01:14:17;1.77;;;1.40;;
23617;SDS011;18207;32.078;34.818;2023-04-09T01:16:58;2.08;;;1.38;;
23617;SDS011;18207;32.078;34.818;2023-04-09T01:19:38;1.83;;;1.27;;
23617;SDS011;18207;32.078;34.818;2023-04-09T01:22:26;3.10;;;1.42;;
23617;SDS011;18207;32.078;34.818;2023-04-09T01:25:16;1.48;;;1.20;;
23617;SDS011;18207;32.078;34.818;2023-04-09T01:28:14;1.40;;;1.30;;
23617;SDS011;18207;32.078;34.818;2023-04-09T01:30:48;1.73;;;1.35;;
23617;SDS011;18207;32.078;34.818;2023-04-09T01:33:21;2.40;;;1.60;;
23617;SDS011;18207;32.078;34.818;2023-04-09T01:35:55;2.80;;;1.50;;
23617;SDS011;18207;32.078;34.818;2023-04-09T01:38:28;2.80;;;1.58;;
23617;SDS011;18207;32.078;34.818;2023-04-09T01:40:58;2.65;;;1.40;;
23617;SDS011;18207;32.078;34.818;2023-04-09T01:43:32;3.70;;;1.52;;
23617;SDS011;18207;32.078;34.818;2023-04-09T01:46:05;1.73;;;1.38;;
23617;SDS011;18207;32.078;34.818;2023-04-09T01:48:38;1.60;;;1.48;;
23617;SDS011;18207;32.078;34.818;2023-04-09T01:51:08;1.75;;;1.20;;
23617;SDS011;18207;32.078;34.818;2023-04-09T01:53:40;2.38;;;1.50;;
23617;SDS011;18207;32.078;34.818;2023-04-09T01:56:10;1.58;;;1.20;;
23617;SDS011;18207;32.078;34.818;2023-04-09T01:58:42;2.25;;;1.30;;
23617;SDS011;18207;32.078;34.818;2023-04-09T02:01:15;3.03;;;1.10;;
23617;SDS011;18207;32.078;34.818;2023-04-09T02:03:55;1.35;;;1.23;;
23617;SDS011;18207;32.078;34.818;2023-04-09T02:06:33;2.42;;;1.40;;
23617;SDS011;18207;32.078;34.818;2023-04-09T02:09:12;2.45;;;1.40;;
23617;SDS011;18207;32.078;34.818;2023-04-09T02:11:48;1.80;;;1.33;;
23617;SDS011;18207;32.078;34.818;2023-04-09T02:14:23;1.63;;;1.33;;
23617;SDS011;18207;32.078;34.818;2023-04-09T02:16:56;2.08;;;1.17;;
23617;SDS011;18207;32.078;34.818;2023-04-09T02:19:36;1.98;;;1.40;;
23617;SDS011;18207;32.078;34.818;2023-04-09T02:22:09;2.15;;;1.40;;
23617;SDS011;18207;32.078;34.818;2023-04-09T02:24:40;1.45;;;1.35;;
23617;SDS011;18207;32.078;34.818;2023-04-09T02:27:10;2.40;;;1.50;;
23617;SDS011;18207;32.078;34.818;2023-04-09T02:29:41;2.67;;;1.55;;
23617;SDS011;18207;32.078;34.818;2023-04-09T02:32:11;1.58;;;1.23;;
23617;SDS011;18207;32.078;34.818;2023-04-09T02:34:41;2.38;;;1.42;;
23617;SDS011;18207;32.078;34.818;2023-04-09T02:37:11;1.63;;;1.20;;
23617;SDS011;18207;32.078;34.818;2023-04-09T02:39:42;1.52;;;1.25;;
23617;SDS011;18207;32.078;34.818;2023-04-09T02:42:12;1.90;;;1.27;;
23617;SDS011;18207;32.078;34.818;2023-04-09T02:44:44;1.63;;;1.33;;
23617;SDS011;18207;32.078;34.818;2023-04-09T02:47:15;1.85;;;1.33;;
23617;SDS011;18207;32.078;34.818;2023-04-09T02:49:46;1.33;;;1.23;;
23617;SDS011;18207;32.078;34.818;2023-04-09T02:52:16;2.42;;;1.40;;
23617;SDS011;18207;32.078;34.818;2023-04-09T02:54:50;2.90;;;1.52;;
23617;SDS011;18207;32.078;34.818;2023-04-09T02:57:21;1.73;;;1.20;;
23617;SDS011;18207;32.078;34.818;2023-04-09T02:59:54;3.05;;;1.60;;
23617;SDS011;18207;32.078;34.818;2023-04-09T03:02:25;2.10;;;1.23;;
23617;SDS011;18207;32.078;34.818;2023-04-09T03:04:55;3.28;;;1.40;;
23617;SDS011;18207;32.078;34.818;2023-04-09T03:07:26;2.72;;;1.67;;
23617;SDS011;18207;32.078;34.818;2023-04-09T03:09:56;2.25;;;1.58;;
23617;SDS011;18207;32.078;34.818;2023-04-09T03:12:27;2.08;;;1.42;;
23617;SDS011;18207;32.078;34.818;2023-04-09T03:14:59;2.03;;;1.70;;
23617;SDS011;18207;32.078;34.818;2023-04-09T03:17:30;2.88;;;1.50;;
23617;SDS011;18207;32.078;34.818;2023-04-09T03:20:01;2.03;;;1.30;;
23617;SDS011;18207;32.078;34.818;2023-04-09T03:22:34;1.98;;;1.40;;
23617;SDS011;18207;32.078;34.818;2023-04-09T03:25:05;3.65;;;1.55;;
23617;SDS011;18207;32.078;34.818;2023-04-09T03:27:37;2.13;;;1.30;;
23617;SDS011;18207;32.078;34.818;2023-04-09T03:30:12;2.42;;;1.30;;
23617;SDS011;18207;32.078;34.818;2023-04-09T03:32:42;1.67;;;1.27;;
23617;SDS011;18207;32.078;34.818;2023-04-09T03:35:12;2.45;;;1.30;;
23617;SDS011;18207;32.078;34.818;2023-04-09T03:37:43;3.40;;;1.77;;
23617;SDS011;18207;32.078;34.818;2023-04-09T03:40:13;3.25;;;1.50;;
23617;SDS011;18207;32.078;34.818;2023-04-09T03:42:43;4.45;;;1.60;;
23617;SDS011;18207;32.078;34.818;2023-04-09T03:45:15;3.80;;;1.77;;
23617;SDS011;18207;32.078;34.818;2023-04-09T03:47:46;2.53;;;1.73;;
23617;SDS011;18207;32.078;34.818;2023-04-09T03:50:17;1.73;;;1.40;;
23617;SDS011;18207;32.078;34.818;2023-04-09T03:52:48;2.90;;;1.65;;
23617;SDS011;18207;32.078;34.818;2023-04-09T03:55:18;3.03;;;1.50;;
23617;SDS011;18207;32.078;34.818;2023-04-09T03:57:48;2.50;;;1.50;;
23617;SDS011;18207;32.078;34.818;2023-04-09T04:00:21;1.65;;;1.50;;
23617;SDS011;18207;32.078;34.818;2023-04-09T04:02:52;2.40;;;1.40;;
23617;SDS011;18207;32.078;34.818;2023-04-09T04:05:23;2.45;;;1.67;;
23617;SDS011;18207;32.078;34.818;2023-04-09T04:07:53;1.42;;;1.27;;
23617;SDS011;18207;32.078;34.818;2023-04-09T04:10:26;2.25;;;1.48;;
23617;SDS011;18207;32.078;34.818;2023-04-09T04:12:57;1.65;;;1.50;;
23617;SDS011;18207;32.078;34.818;2023-04-09T04:15:29;2.10;;;1.67;;
23617;SDS011;18207;32.078;34.818;2023-04-09T04:18:00;1.83;;;1.48;;
23617;SDS011;18207;32.078;34.818;2023-04-09T04:20:31;2.22;;;1.58;;
23617;SDS011;18207;32.078;34.818;2023-04-09T04:23:02;1.65;;;1.50;;
23617;SDS011;18207;32.078;34.818;2023-04-09T04:25:33;2.40;;;1.50;;
23617;SDS011;18207;32.078;34.818;2023-04-09T04:28:03;2.90;;;1.42;;
23617;SDS011;18207;32.078;34.818;2023-04-09T04:30:35;2.85;;;1.60;;
23617;SDS011;18207;32.078;34.818;2023-04-09T04:33:08;1.48;;;1.30;;
23617;SDS011;18207;32.078;34.818;2023-04-09T04:35:42;3.97;;;1.55;;
23617;SDS011;18207;32.078;34.818;2023-04-09T04:38:13;2.63;;;1.55;;
23617;SDS011;18207;32.078;34.818;2023-04-09T04:40:44;5.15;;;1.67;;
23617;SDS011;18207;32.078;34.818;2023-04-09T04:43:14;2.40;;;1.42;;
23617;SDS011;18207;32.078;34.818;2023-04-09T04:45:46;1.90;;;1.38;;
23617;SDS011;18207;32.078;34.818;2023-04-09T04:48:19;2.88;;;1.58;;
23617;SDS011;18207;32.078;34.818;2023-04-09T04:50:53;3.78;;;1.38;;
23617;SDS011;18207;32.078;34.818;2023-04-09T04:53:25;2.20;;;1.58;;
23617;SDS011;18207;32.078;34.818;2023-04-09T04:55:55;4.65;;;1.48;;
23617;SDS011;18207;32.078;34.818;2023-04-09T04:58:26;2.33;;;1.58;;
23617;SDS011;18207;32.078;34.818;2023-04-09T05:00:59;2.78;;;1.60;;
23617;SDS011;18207;32.078;34.818;2023-04-09T05:03:30;2.42;;;1.58;;
23617;SDS011;18207;32.078;34.818;2023-04-09T05:06:01;2.25;;;1.52;;
23617;SDS011;18207;32.078;34.818;2023-04-09T05:08:31;3.17;;;1.80;;
23617;SDS011;18207;32.078;34.818;2023-04-09T05:11:02;3.35;;;1.70;;
23617;SDS011;18207;32.078;34.818;2023-04-09T05:13:32;3.33;;;1.88;;
23617;SDS011;18207;32.078;34.818;2023-04-09T05:16:05;2.05;;;1.60;;
23617;SDS011;18207;32.078;34.818;2023-04-09T05:18:36;2.75;;;2.10;;
23617;SDS011;18207;32.078;34.818;2023-04-09T05:21:06;2.47;;;1.50;;
23617;SDS011;18207;32.078;34.818;2023-04-09T05:23:36;2.47;;;1.58;;
23617;SDS011;18207;32.078;34.818;2023-04-09T05:26:07;2.33;;;1.48;;
23617;SDS011;18207;32.078;34.818;2023-04-09T05:28:38;5.15;;;1.90;;
23617;SDS011;18207;32.078;34.818;2023-04-09T05:31:10;2.60;;;1.70;;
23617;SDS011;18207;32.078;34.818;2023-04-09T05:33:42;2.92;;;1.80;;
23617;SDS011;18207;32.078;34.818;2023-04-09T05:36:14;3.95;;;2.15;;
23617;SDS011;18207;32.078;34.818;2023-04-09T05:38:45;3.83;;;1.92;;
23617;SDS011;18207;32.078;34.818;2023-04-09T05:41:17;2.17;;;1.70;;
23617;SDS011;18207;32.078;34.818;2023-04-09T05:43:48;4.07;;;1.83;;
23617;SDS011;18207;32.078;34.818;2023-04-09T05:46:21;2.55;;;1.95;;
23617;SDS011;18207;32.078;34.818;2023-04-09T05:48:52;2.45;;;1.80;;
23617;SDS011;18207;32.078;34.818;2023-04-09T05:51:22;3.60;;;1.80;;
23617;SDS011;18207;32.078;34.818;2023-04-09T05:53:53;2.97;;;1.83;;
23617;SDS011;18207;32.078;34.818;2023-04-09T05:56:23;2.15;;;1.77;;
23617;SDS011;18207;32.078;34.818;2023-04-09T05:58:54;3.88;;;1.90;;
23617;SDS011;18207;32.078;34.818;2023-04-09T06:01:26;3.25;;;2.00;;
23617;SDS011;18207;32.078;34.818;2023-04-09T06:03:57;4.40;;;1.80;;
23617;SDS011;18207;32.078;34.818;2023-04-09T06:06:28;3.53;;;1.83;;
23617;SDS011;18207;32.078;34.818;2023-04-09T06:08:58;3.42;;;1.92;;
23617;SDS011;18207;32.078;34.818;2023-04-09T06:11:30;3.40;;;1.90;;
23617;SDS011;18207;32.078;34.818;2023-04-09T06:14:01;2.85;;;1.73;;
23617;SDS011;18207;32.078;34.818;2023-04-09T06:16:33;2.22;;;1.80;;
23617;SDS011;18207;32.078;34.818;2023-04-09T06:19:06;2.85;;;1.50;;
23617;SDS011;18207;32.078;34.818;2023-04-09T06:21:43;2.85;;;1.80;;
23617;SDS011;18207;32.078;34.818;2023-04-09T06:24:13;2.63;;;1.63;;
23617;SDS011;18207;32.078;34.818;2023-04-09T06:26:43;2.45;;;1.77;;
23617;SDS011;18207;32.078;34.818;2023-04-09T06:29:13;3.47;;;1.75;;
23617;SDS011;18207;32.078;34.818;2023-04-09T06:31:46;2.17;;;1.63;;
23617;SDS011;18207;32.078;34.818;2023-04-09T06:34:16;2.78;;;1.98;;
23617;SDS011;18207;32.078;34.818;2023-04-09T06:36:46;4.25;;;2.00;;
23617;SDS011;18207;32.078;34.818;2023-04-09T06:39:17;4.07;;;2.10;;
23617;SDS011;18207;32.078;34.818;2023-04-09T06:41:48;2.42;;;1.67;;
23617;SDS011;18207;32.078;34.818;2023-04-09T06:44:18;3.78;;;1.85;;
23617;SDS011;18207;32.078;34.818;2023-04-09T06:46:51;2.33;;;1.77;;
23617;SDS011;18207;32.078;34.818;2023-04-09T06:49:21;2.55;;;1.70;;
23617;SDS011;18207;32.078;34.818;2023-04-09T06:51:51;3.63;;;1.90;;
23617;SDS011;18207;32.078;34.818;2023-04-09T06:54:21;3.40;;;2.03;;
23617;SDS011;18207;32.078;34.818;2023-04-09T06:56:55;4.78;;;1.88;;
23617;SDS011;18207;32.078;34.818;2023-04-09T06:59:25;3.65;;;1.75;;
23617;SDS011;18207;32.078;34.818;2023-04-09T07:01:58;4.03;;;1.70;;
23617;SDS011;18207;32.078;34.818;2023-04-09T07:04:28;2.17;;;1.83;;
23617;SDS011;18207;32.078;34.818;2023-04-09T07:06:59;3.58;;;2.10;;
23617;SDS011;18207;32.078;34.818;2023-04-09T07:09:29;2.47;;;1.80;;
23617;SDS011;18207;32.078;34.818;2023-04-09T07:12:00;3.63;;;1.90;;
23617;SDS011;18207;32.078;34.818;2023-04-09T07:14:30;3.45;;;1.60;;
23617;SDS011;18207;32.078;34.818;2023-04-09T07:17:03;2.03;;;1.63;;
23617;SDS011;18207;32.078;34.818;2023-04-09T07:19:33;2.85;;;1.75;;
23617;SDS011;18207;32.078;34.818;2023-04-09T07:22:03;5.07;;;1.85;;
23617;SDS011;18207;32.078;34.818;2023-04-09T07:24:33;3.72;;;1.73;;
23617;SDS011;18207;32.078;34.818;2023-04-09T07:27:04;3.40;;;2.08;;
23617;SDS011;18207;32.078;34.818;2023-04-09T07:29:34;2.60;;;1.60;;
23617;SDS011;18207;32.078;34.818;2023-04-09T07:32:06;3.33;;;1.80;;
23617;SDS011;18207;32.078;34.818;2023-04-09T07:34:36;4.10;;;1.67;;
23617;SDS011;18207;32.078;34.818;2023-04-09T07:37:07;3.22;;;1.67;;
23617;SDS011;18207;32.078;34.818;2023-04-09T07:39:37;2.33;;;1.67;;
23617;SDS011;18207;32.078;34.818;2023-04-09T07:42:08;4.18;;;1.48;;
23617;SDS011;18207;32.078;34.818;2023-04-09T07:44:39;4.00;;;1.58;;
23617;SDS011;18207;32.078;34.818;2023-04-09T07:47:13;3.05;;;1.50;;
23617;SDS011;18207;32.078;34.818;2023-04-09T07:49:43;3.33;;;1.50;;
23617;SDS011;18207;32.078;34.818;2023-04-09T07:52:14;4.28;;;1.80;;
23617;SDS011;18207;32.078;34.818;2023-04-09T07:54:45;3.70;;;1.67;;
23617;SDS011;18207;32.078;34.818;2023-04-09T07:57:15;3.03;;;1.50;;
23617;SDS011;18207;32.078;34.818;2023-04-09T07:59:45;2.60;;;1.38;;
23617;SDS011;18207;32.078;34.818;2023-04-09T08:02:18;2.47;;;1.63;;
23617;SDS011;18207;32.078;34.818;2023-04-09T08:04:49;2.65;;;1.60;;
23617;SDS011;18207;32.078;34.818;2023-04-09T08:07:19;4.20;;;1.63;;
23617;SDS011;18207;32.078;34.818;2023-04-09T08:09:50;2.40;;;1.70;;
23617;SDS011;18207;32.078;34.818;2023-04-09T08:12:21;2.83;;;1.60;;
23617;SDS011;18207;32.078;34.818;2023-04-09T08:14:52;2.05;;;1.45;;
23617;SDS011;18207;32.078;34.818;2023-04-09T08:17:24;3.60;;;1.63;;
23617;SDS011;18207;32.078;34.818;2023-04-09T08:19:54;3.90;;;1.75;;
23617;SDS011;18207;32.078;34.818;2023-04-09T08:22:25;3.72;;;1.85;;
23617;SDS011;18207;32.078;34.818;2023-04-09T08:24:55;2.83;;;1.58;;
23617;SDS011;18207;32.078;34.818;2023-04-09T08:27:28;2.72;;;1.70;;
23617;SDS011;18207;32.078;34.818;2023-04-09T08:29:59;1.65;;;1.30;;
23617;SDS011;18207;32.078;34.818;2023-04-09T08:32:32;4.25;;;1.65;;
23617;SDS011;18207;32.078;34.818;2023-04-09T08:35:03;3.20;;;1.65;;
23617;SDS011;18207;32.078;34.818;2023-04-09T08:37:35;2.45;;;1.55;;
23617;SDS011;18207;32.078;34.818;2023-04-09T08:40:06;3.75;;;1.45;;
23617;SDS011;18207;32.078;34.818;2023-04-09T08:42:38;2.35;;;1.60;;
23617;SDS011;18207;32.078;34.818;2023-04-09T08:45:13;2.80;;;1.60;;
23617;SDS011;18207;32.078;34.818;2023-04-09T08:47:45;3.00;;;1.73;;
23617;SDS011;18207;32.078;34.818;2023-04-09T08:50:18;3.72;;;1.80;;
23617;SDS011;18207;32.078;34.818;2023-04-09T08:52:50;2.67;;;1.80;;
23617;SDS011;18207;32.078;34.818;2023-04-09T08:55:22;2.63;;;1.77;;
23617;SDS011;18207;32.078;34.818;2023-04-09T08:57:52;2.55;;;1.90;;
23617;SDS011;18207;32.078;34.818;2023-04-09T09:00:24;2.15;;;1.83;;
23617;SDS011;18207;32.078;34.818;2023-04-09T09:03:04;2.90;;;1.90;;
23617;SDS011;18207;32.078;34.818;2023-04-09T09:05:36;3.05;;;1.85;;
23617;SDS011;18207;32.078;34.818;2023-04-09T09:08:09;3.20;;;1.67;;
23617;SDS011;18207;32.078;34.818;2023-04-09T09:10:41;3.70;;;1.85;;
23617;SDS011;18207;32.078;34.818;2023-04-09T09:13:17;3.22;;;1.67;;
23617;SDS011;18207;32.078;34.818;2023-04-09T09:15:50;3.75;;;1.80;;
23617;SDS011;18207;32.078;34.818;2023-04-09T09:21:10;3.10;;;1.58;;
23617;SDS011;18207;32.078;34.818;2023-04-09T09:23:42;4.22;;;1.70;;
23617;SDS011;18207;32.078;34.818;2023-04-09T09:26:15;3.55;;;1.60;;
23617;SDS011;18207;32.078;34.818;2023-04-09T09:28:47;2.80;;;1.60;;
23617;SDS011;18207;32.078;34.818;2023-04-09T09:31:18;2.50;;;1.52;;
23617;SDS011;18207;32.078;34.818;2023-04-09T09:33:53;3.67;;;1.80;;
23617;SDS011;18207;32.078;34.818;2023-04-09T09:36:30;4.55;;;1.75;;
23617;SDS011;18207;32.078;34.818;2023-04-09T09:39:02;1.95;;;1.80;;
23617;SDS011;18207;32.078;34.818;2023-04-09T09:41:36;2.88;;;1.83;;
23617;SDS011;18207;32.078;34.818;2023-04-09T09:44:07;2.80;;;1.75;;
23617;SDS011;18207;32.078;34.818;2023-04-09T09:46:39;4.25;;;1.80;;
23617;SDS011;18207;32.078;34.818;2023-04-09T09:49:12;2.47;;;1.88;;
23617;SDS011;18207;32.078;34.818;2023-04-09T09:51:42;3.45;;;1.77;;
23617;SDS011;18207;32.078;34.818;2023-04-09T09:54:13;4.10;;;2.13;;
23617;SDS011;18207;32.078;34.818;2023-04-09T09:56:51;3.15;;;2.15;;
23617;SDS011;18207;32.078;34.818;2023-04-09T09:59:29;4.25;;;2.10;;
23617;SDS011;18207;32.078;34.818;2023-04-09T10:02:06;3.00;;;1.70;;
23617;SDS011;18207;32.078;34.818;2023-04-09T10:04:49;4.28;;;1.92;;
23617;SDS011;18207;32.078;34.818;2023-04-09T10:07:21;3.78;;;1.92;;
23617;SDS011;18207;32.078;34.818;2023-04-09T10:09:53;3.33;;;1.85;;
23617;SDS011;18207;32.078;34.818;2023-04-09T10:12:26;2.45;;;1.70;;
23617;SDS011;18207;32.078;34.818;2023-04-09T10:14:57;4.07;;;2.15;;
23617;SDS011;18207;32.078;34.818;2023-04-09T10:17:32;2.83;;;1.63;;
23617;SDS011;18207;32.078;34.818;2023-04-09T10:20:06;3.55;;;2.10;;
23617;SDS011;18207;32.078;34.818;2023-04-09T10:22:43;3.63;;;1.70;;
23617;SDS011;18207;32.078;34.818;2023-04-09T10:25:17;3.28;;;1.58;;
23617;SDS011;18207;32.078;34.818;2023-04-09T10:27:58;2.33;;;1.80;;
23617;SDS011;18207;32.078;34.818;2023-04-09T10:30:32;2.80;;;1.85;;
23617;SDS011;18207;32.078;34.818;2023-04-09T10:33:07;3.60;;;1.88;;
23617;SDS011;18207;32.078;34.818;2023-04-09T10:35:41;2.72;;;1.85;;
23617;SDS011;18207;32.078;34.818;2023-04-09T10:38:15;3.00;;;1.88;;
23617;SDS011;18207;32.078;34.818;2023-04-09T10:40:46;2.80;;;1.80;;
23617;SDS011;18207;32.078;34.818;2023-04-09T10:43:18;2.95;;;1.83;;
23617;SDS011;18207;32.078;34.818;2023-04-09T10:45:50;3.42;;;1.77;;
23617;SDS011;18207;32.078;34.818;2023-04-09T10:48:20;3.42;;;2.00;;
23617;SDS011;18207;32.078;34.818;2023-04-09T10:50:55;2.15;;;1.60;;
23617;SDS011;18207;32.078;34.818;2023-04-09T10:53:25;3.28;;;1.80;;
23617;SDS011;18207;32.078;34.818;2023-04-09T10:55:56;2.42;;;1.70;;
23617;SDS011;18207;32.078;34.818;2023-04-09T10:58:27;2.72;;;1.83;;
23617;SDS011;18207;32.078;34.818;2023-04-09T11:00:57;3.88;;;1.80;;
23617;SDS011;18207;32.078;34.818;2023-04-09T11:03:30;3.17;;;2.00;;
23617;SDS011;18207;32.078;34.818;2023-04-09T11:06:14;2.58;;;1.65;;
23617;SDS011;18207;32.078;34.818;2023-04-09T11:08:50;3.45;;;1.58;;
23617;SDS011;18207;32.078;34.818;2023-04-09T11:11:24;3.35;;;1.88;;
23617;SDS011;18207;32.078;34.818;2023-04-09T11:13:57;3.13;;;1.70;;
23617;SDS011;18207;32.078;34.818;2023-04-09T11:16:28;2.63;;;1.60;;
23617;SDS011;18207;32.078;34.818;2023-04-09T11:18:59;1.90;;;1.55;;
23617;SDS011;18207;32.078;34.818;2023-04-09T11:21:32;3.42;;;1.77;;
23617;SDS011;18207;32.078;34.818;2023-04-09T11:24:04;3.45;;;1.77;;
23617;SDS011;18207;32.078;34.818;2023-04-09T11:26:34;3.03;;;1.70;;
23617;SDS011;18207;32.078;34.818;2023-04-09T11:29:05;3.72;;;1.65;;
23617;SDS011;18207;32.078;34.818;2023-04-09T11:31:36;2.10;;;1.40;;
23617;SDS011;18207;32.078;34.818;2023-04-09T11:34:08;2.65;;;1.73;;
23617;SDS011;18207;32.078;34.818;2023-04-09T11:36:40;1.55;;;1.40;;
23617;SDS011;18207;32.078;34.818;2023-04-09T11:39:10;3.45;;;1.55;;
23617;SDS011;18207;32.078;34.818;2023-04-09T11:41:40;3.35;;;1.60;;
23617;SDS011;18207;32.078;34.818;2023-04-09T11:44:12;2.78;;;1.60;;
23617;SDS011;18207;32.078;34.818;2023-04-09T11:46:42;2.58;;;1.60;;
23617;SDS011;18207;32.078;34.818;2023-04-09T11:49:12;2.95;;;1.58;;
23617;SDS011;18207;32.078;34.818;2023-04-09T11:51:44;2.05;;;1.50;;
23617;SDS011;18207;32.078;34.818;2023-04-09T11:54:15;1.85;;;1.42;;
23617;SDS011;18207;32.078;34.818;2023-04-09T11:56:45;4.15;;;1.67;;
23617;SDS011;18207;32.078;34.818;2023-04-09T11:59:21;2.22;;;1.30;;
23617;SDS011;18207;32.078;34.818;2023-04-09T12:01:52;3.78;;;1.73;;
23617;SDS011;18207;32.078;34.818;2023-04-09T12:04:25;2.67;;;1.42;;
23617;SDS011;18207;32.078;34.818;2023-04-09T12:06:57;3.22;;;1.50;;
23617;SDS011;18207;32.078;34.818;2023-04-09T12:09:28;3.25;;;1.50;;
23617;SDS011;18207;32.078;34.818;2023-04-09T12:11:58;2.53;;;1.60;;
23617;SDS011;18207;32.078;34.818;2023-04-09T12:14:28;1.83;;;1.35;;
23617;SDS011;18207;32.078;34.818;2023-04-09T12:16:59;2.85;;;1.63;;
23617;SDS011;18207;32.078;34.818;2023-04-09T12:19:29;2.22;;;1.40;;
23617;SDS011;18207;32.078;34.818;2023-04-09T12:22:01;1.90;;;1.50;;
23617;SDS011;18207;32.078;34.818;2023-04-09T12:24:30;1.98;;;1.30;;
23617;SDS011;18207;32.078;34.818;2023-04-09T12:27:01;3.83;;;1.50;;
23617;SDS011;18207;32.078;34.818;2023-04-09T12:29:31;3.22;;;1.60;;
23617;SDS011;18207;32.078;34.818;2023-04-09T12:32:01;2.75;;;1.63;;
23617;SDS011;18207;32.078;34.818;2023-04-09T12:34:33;3.10;;;1.52;;
23617;SDS011;18207;32.078;34.818;2023-04-09T12:37:05;2.90;;;1.55;;
23617;SDS011;18207;32.078;34.818;2023-04-09T12:39:35;4.00;;;1.17;;
23617;SDS011;18207;32.078;34.818;2023-04-09T12:42:04;2.17;;;1.50;;
23617;SDS011;18207;32.078;34.818;2023-04-09T12:44:35;3.25;;;1.45;;
23617;SDS011;18207;32.078;34.818;2023-04-09T12:47:06;1.92;;;1.60;;
23617;SDS011;18207;32.078;34.818;2023-04-09T12:49:35;2.47;;;1.65;;
23617;SDS011;18207;32.078;34.818;2023-04-09T12:52:09;3.28;;;2.45;;
23617;SDS011;18207;32.078;34.818;2023-04-09T12:54:40;5.43;;;4.43;;
23617;SDS011;18207;32.078;34.818;2023-04-09T12:57:10;5.32;;;4.10;;
23617;SDS011;18207;32.078;34.818;2023-04-09T12:59:41;4.70;;;4.25;;
23617;SDS011;18207;32.078;34.818;2023-04-09T13:02:13;6.45;;;5.85;;
23617;SDS011;18207;32.078;34.818;2023-04-09T13:04:44;5.35;;;4.82;;
23617;SDS011;18207;32.078;34.818;2023-04-09T13:07:16;6.75;;;4.50;;
23617;SDS011;18207;32.078;34.818;2023-04-09T13:09:46;6.07;;;4.00;;
23617;SDS011;18207;32.078;34.818;2023-04-09T13:12:18;4.05;;;3.42;;
23617;SDS011;18207;32.078;34.818;2023-04-09T13:14:49;3.92;;;3.30;;
23617;SDS011;18207;32.078;34.818;2023-04-09T13:17:22;3.33;;;3.03;;
23617;SDS011;18207;32.078;34.818;2023-04-09T13:19:53;3.33;;;2.90;;
23617;SDS011;18207;32.078;34.818;2023-04-09T13:22:25;2.92;;;2.60;;
23617;SDS011;18207;32.078;34.818;2023-04-09T13:24:55;2.75;;;2.45;;
23617;SDS011;18207;32.078;34.818;2023-04-09T13:27:25;3.70;;;2.47;;
23617;SDS011;18207;32.078;34.818;2023-04-09T13:29:55;2.63;;;2.42;;
23617;SDS011;18207;32.078;34.818;2023-04-09T13:32:25;2.70;;;2.42;;
23617;SDS011;18207;32.078;34.818;2023-04-09T13:34:56;2.50;;;2.30;;
23617;SDS011;18207;32.078;34.818;2023-04-09T13:37:27;2.88;;;2.15;;
23617;SDS011;18207;32.078;34.818;2023-04-09T13:39:58;2.33;;;1.85;;
23617;SDS011;18207;32.078;34.818;2023-04-09T13:42:28;3.88;;;2.00;;
23617;SDS011;18207;32.078;34.818;2023-04-09T13:44:59;3.30;;;1.90;;
23617;SDS011;18207;32.078;34.818;2023-04-09T13:47:29;2.88;;;1.98;;
23617;SDS011;18207;32.078;34.818;2023-04-09T13:49:59;3.53;;;2.00;;
23617;SDS011;18207;32.078;34.818;2023-04-09T13:52:31;2.80;;;2.13;;
23617;SDS011;18207;32.078;34.818;2023-04-09T13:55:01;2.25;;;1.73;;
23617;SDS011;18207;32.078;34.818;2023-04-09T13:57:37;1.70;;;1.58;;
23617;SDS011;18207;32.078;34.818;2023-04-09T14:00:07;3.90;;;1.83;;
23617;SDS011;18207;32.078;34.818;2023-04-09T14:02:39;2.22;;;1.88;;
23617;SDS011;18207;32.078;34.818;2023-04-09T14:05:10;2.58;;;2.10;;
23617;SDS011;18207;32.078;34.818;2023-04-09T14:07:42;3.17;;;2.00;;
23617;SDS011;18207;32.078;34.818;2023-04-09T14:10:12;2.78;;;1.77;;
23617;SDS011;18207;32.078;34.818;2023-04-09T14:12:43;4.68;;;2.40;;
23617;SDS011;18207;32.078;34.818;2023-04-09T14:15:13;2.88;;;2.20;;
23617;SDS011;18207;32.078;34.818;2023-04-09T14:17:43;3.17;;;2.25;;
23617;SDS011;18207;32.078;34.818;2023-04-09T14:20:13;2.63;;;1.95;;
23617;SDS011;18207;32.078;34.818;2023-04-09T14:22:48;2.97;;;1.90;;
23617;SDS011;18207;32.078;34.818;2023-04-09T14:25:18;2.92;;;2.15;;
23617;SDS011;18207;32.078;34.818;2023-04-09T14:27:48;3.35;;;2.20;;
23617;SDS011;18207;32.078;34.818;2023-04-09T14:30:19;3.53;;;2.30;;
23617;SDS011;18207;32.078;34.818;2023-04-09T14:32:49;3.08;;;2.13;;
23617;SDS011;18207;32.078;34.818;2023-04-09T14:35:20;3.10;;;2.00;;
23617;SDS011;18207;32.078;34.818;2023-04-09T14:37:52;2.92;;;1.90;;
23617;SDS011;18207;32.078;34.818;2023-04-09T14:40:22;1.67;;;1.58;;
23617;SDS011;18207;32.078;34.818;2023-04-09T14:42:53;1.75;;;1.42;;
23617;SDS011;18207;32.078;34.818;2023-04-09T14:45:22;4.30;;;1.80;;
23617;SDS011;18207;32.078;34.818;2023-04-09T14:47:55;10.20;;;3.13;;
23617;SDS011;18207;32.078;34.818;2023-04-09T14:50:27;7.57;;;2.75;;
23617;SDS011;18207;32.078;34.818;2023-04-09T14:53:01;4.45;;;2.38;;
23617;SDS011;18207;32.078;34.818;2023-04-09T14:55:32;5.78;;;2.50;;
23617;SDS011;18207;32.078;34.818;2023-04-09T14:58:02;4.28;;;2.03;;
23617;SDS011;18207;32.078;34.818;2023-04-09T15:00:34;3.20;;;2.10;;
23617;SDS011;18207;32.078;34.818;2023-04-09T15:03:04;2.95;;;1.90;;